createdAt,value
2023-04-22T00:00:12.065Z,1015.43
2023-04-22T00:00:22.538Z,1015.36
2023-04-22T00:00:31.930Z,1015.41
2023-04-22T00:00:41.426Z,1015.41
2023-04-22T00:00:50.820Z,1015.43
2023-04-22T00:01:00.235Z,1015.38
2023-04-22T00:01:19.078Z,1015.40
2023-04-22T00:01:28.489Z,1015.44
2023-04-22T00:01:37.910Z,1015.42
2023-04-22T00:01:47.321Z,1015.34
2023-04-22T00:01:56.886Z,1015.42
2023-04-22T00:02:06.445Z,1015.38
2023-04-22T00:02:25.234Z,1015.46
2023-04-22T00:02:34.688Z,1015.44
2023-04-22T00:02:44.154Z,1015.45
2023-04-22T00:02:53.615Z,1015.41
2023-04-22T00:03:02.952Z,1015.40
2023-04-22T00:03:12.442Z,1015.38
2023-04-22T00:03:31.416Z,1015.40
2023-04-22T00:03:40.790Z,1015.39
2023-04-22T00:03:50.253Z,1015.43
2023-04-22T00:03:59.575Z,1015.43
2023-04-22T00:04:09.213Z,1015.43
2023-04-22T00:04:18.521Z,1015.46
2023-04-22T00:04:37.379Z,1015.42
2023-04-22T00:04:46.707Z,1015.41
2023-04-22T00:04:56.054Z,1015.35
2023-04-22T00:05:05.442Z,1015.41
2023-04-22T00:05:17.217Z,1015.41
2023-04-22T00:05:24.322Z,1015.43
2023-04-22T00:05:43.080Z,1015.35
2023-04-22T00:05:52.526Z,1015.37
2023-04-22T00:06:01.964Z,1015.47
2023-04-22T00:06:11.269Z,1015.43
2023-04-22T00:06:20.689Z,1015.31
2023-04-22T00:06:30.088Z,1015.42
2023-04-22T00:06:48.913Z,1015.46
2023-04-22T00:06:58.304Z,1015.39
2023-04-22T00:07:07.740Z,1015.37
2023-04-22T00:07:17.193Z,1015.31
2023-04-22T00:07:26.597Z,1015.27
2023-04-22T00:07:36.004Z,1015.28
2023-04-22T00:07:54.831Z,1015.36
2023-04-22T00:08:04.249Z,1015.29
2023-04-22T00:08:13.638Z,1015.38
2023-04-22T00:08:23.056Z,1015.32
2023-04-22T00:08:32.472Z,1015.28
2023-04-22T00:08:41.853Z,1015.38
2023-04-22T00:09:00.653Z,1015.31
2023-04-22T00:09:10.064Z,1015.30
2023-04-22T00:09:19.476Z,1015.34
2023-04-22T00:09:28.903Z,1015.24
2023-04-22T00:09:38.729Z,1015.38
2023-04-22T00:09:47.737Z,1015.33
2023-04-22T00:10:06.591Z,1015.37
2023-04-22T00:10:16.019Z,1015.30
2023-04-22T00:10:25.444Z,1015.31
2023-04-22T00:10:34.850Z,1015.26
2023-04-22T00:10:44.274Z,1015.24
2023-04-22T00:10:53.689Z,1015.28
2023-04-22T00:11:12.537Z,1015.31
2023-04-22T00:11:21.925Z,1015.37
2023-04-22T00:11:31.324Z,1015.30
2023-04-22T00:11:40.784Z,1015.25
2023-04-22T00:11:50.183Z,1015.32
2023-04-22T00:11:59.570Z,1015.35
2023-04-22T00:12:18.389Z,1015.32
2023-04-22T00:12:27.806Z,1015.41
2023-04-22T00:12:37.303Z,1015.31
2023-04-22T00:12:46.685Z,1015.32
2023-04-22T00:12:56.108Z,1015.28
2023-04-22T00:13:05.505Z,1015.28
2023-04-22T00:13:24.288Z,1015.29
2023-04-22T00:13:33.804Z,1015.27
2023-04-22T00:13:43.595Z,1015.30
2023-04-22T00:13:53.154Z,1015.27
2023-04-22T00:14:02.580Z,1015.26
2023-04-22T00:14:11.995Z,1015.27
2023-04-22T00:14:30.830Z,1015.26
2023-04-22T00:14:40.232Z,1015.27
2023-04-22T00:14:49.621Z,1015.28
2023-04-22T00:14:59.020Z,1015.34
2023-04-22T00:15:08.407Z,1015.34
2023-04-22T00:15:17.831Z,1015.26
2023-04-22T00:15:38.977Z,1015.26
2023-04-22T00:15:46.705Z,1015.30
2023-04-22T00:15:56.150Z,1015.26
2023-04-22T00:16:05.518Z,1015.30
2023-04-22T00:16:14.913Z,1015.23
2023-04-22T00:16:24.313Z,1015.27
2023-04-22T00:16:43.224Z,1015.25
2023-04-22T00:16:52.525Z,1015.33
2023-04-22T00:17:01.930Z,1015.30
2023-04-22T00:17:11.307Z,1015.23
2023-04-22T00:17:20.794Z,1015.22
2023-04-22T00:17:30.193Z,1015.23
2023-04-22T00:17:49.016Z,1015.25
2023-04-22T00:17:58.436Z,1015.29
2023-04-22T00:18:07.856Z,1015.25
2023-04-22T00:18:17.211Z,1015.24
2023-04-22T00:18:26.629Z,1015.23
2023-04-22T00:18:36.068Z,1015.26
2023-04-22T00:18:54.900Z,1015.28
2023-04-22T00:19:04.306Z,1015.22
2023-04-22T00:19:13.703Z,1015.31
2023-04-22T00:19:23.246Z,1015.21
2023-04-22T00:19:32.648Z,1015.28
2023-04-22T00:19:42.048Z,1015.24
2023-04-22T00:20:00.931Z,1015.30
2023-04-22T00:20:10.380Z,1015.24
2023-04-22T00:20:19.762Z,1015.22
2023-04-22T00:20:29.159Z,1015.21
2023-04-22T00:20:38.582Z,1015.26
2023-04-22T00:20:47.972Z,1015.22
2023-04-22T00:21:06.766Z,1015.20
2023-04-22T00:21:16.184Z,1015.26
2023-04-22T00:21:25.614Z,1015.25
2023-04-22T00:21:35.078Z,1015.31
2023-04-22T00:21:44.485Z,1015.27
2023-04-22T00:21:53.875Z,1015.25
2023-04-22T00:22:12.725Z,1015.23
2023-04-22T00:22:22.181Z,1015.26
2023-04-22T00:22:31.604Z,1015.26
2023-04-22T00:22:41.033Z,1015.25
2023-04-22T00:22:50.402Z,1015.30
2023-04-22T00:22:59.813Z,1015.23
2023-04-22T00:23:18.648Z,1015.22
2023-04-22T00:23:28.087Z,1015.29
2023-04-22T00:23:37.555Z,1015.23
2023-04-22T00:23:46.971Z,1015.25
2023-04-22T00:23:56.389Z,1015.28
2023-04-22T00:24:05.812Z,1015.23
2023-04-22T00:24:24.850Z,1015.18
2023-04-22T00:24:34.278Z,1015.27
2023-04-22T00:24:43.710Z,1015.27
2023-04-22T00:24:53.125Z,1015.26
2023-04-22T00:25:02.540Z,1015.17
2023-04-22T00:25:11.967Z,1015.21
2023-04-22T00:25:30.934Z,1015.20
2023-04-22T00:25:40.342Z,1015.28
2023-04-22T00:25:49.750Z,1015.25
2023-04-22T00:25:59.178Z,1015.27
2023-04-22T00:26:08.628Z,1015.22
2023-04-22T00:26:18.003Z,1015.23
2023-04-22T00:26:36.847Z,1015.20
2023-04-22T00:26:46.238Z,1015.22
2023-04-22T00:26:55.653Z,1015.22
2023-04-22T00:27:05.052Z,1015.22
2023-04-22T00:27:14.436Z,1015.34
2023-04-22T00:27:23.871Z,1015.22
2023-04-22T00:27:42.685Z,1015.23
2023-04-22T00:27:52.109Z,1015.21
2023-04-22T00:28:01.553Z,1015.23
2023-04-22T00:28:10.995Z,1015.25
2023-04-22T00:28:20.410Z,1015.21
2023-04-22T00:28:29.801Z,1015.24
2023-04-22T00:28:48.604Z,1015.28
2023-04-22T00:28:58.015Z,1015.20
2023-04-22T00:29:07.408Z,1015.22
2023-04-22T00:29:16.802Z,1015.19
2023-04-22T00:29:26.251Z,1015.25
2023-04-22T00:29:35.781Z,1015.18
2023-04-22T00:29:54.524Z,1015.24
2023-04-22T00:30:03.943Z,1015.21
2023-04-22T00:30:13.328Z,1015.22
2023-04-22T00:30:22.760Z,1015.27
2023-04-22T00:30:32.203Z,1015.27
2023-04-22T00:30:41.606Z,1015.26
2023-04-22T00:31:00.417Z,1015.21
2023-04-22T00:31:09.897Z,1015.25
2023-04-22T00:31:19.241Z,1015.25
2023-04-22T00:31:28.769Z,1015.19
2023-04-22T00:31:38.085Z,1015.28
2023-04-22T00:31:47.514Z,1015.22
2023-04-22T00:32:06.225Z,1015.16
2023-04-22T00:32:15.632Z,1015.23
2023-04-22T00:32:25.093Z,1015.21
2023-04-22T00:32:34.468Z,1015.23
2023-04-22T00:32:43.878Z,1015.17
2023-04-22T00:32:53.279Z,1015.22
2023-04-22T00:33:12.092Z,1015.22
2023-04-22T00:33:21.460Z,1015.23
2023-04-22T00:33:30.860Z,1015.24
2023-04-22T00:33:40.271Z,1015.20
2023-04-22T00:33:49.686Z,1015.18
2023-04-22T00:33:59.103Z,1015.19
2023-04-22T00:34:18.180Z,1015.20
2023-04-22T00:34:27.414Z,1015.22
2023-04-22T00:34:36.833Z,1015.22
2023-04-22T00:34:46.215Z,1015.23
2023-04-22T00:34:55.676Z,1015.26
2023-04-22T00:35:05.071Z,1015.24
2023-04-22T00:35:23.965Z,1015.19
2023-04-22T00:35:33.369Z,1015.20
2023-04-22T00:35:42.784Z,1015.22
2023-04-22T00:35:52.193Z,1015.21
2023-04-22T00:36:01.622Z,1015.23
2023-04-22T00:36:11.016Z,1015.17
2023-04-22T00:36:29.868Z,1015.24
2023-04-22T00:36:39.260Z,1015.21
2023-04-22T00:36:48.688Z,1015.20
2023-04-22T00:36:58.172Z,1015.24
2023-04-22T00:37:07.598Z,1015.21
2023-04-22T00:37:16.991Z,1015.21
2023-04-22T00:37:35.874Z,1015.19
2023-04-22T00:37:45.272Z,1015.20
2023-04-22T00:37:54.773Z,1015.19
2023-04-22T00:38:04.136Z,1015.17
2023-04-22T00:38:13.546Z,1015.26
2023-04-22T00:38:22.962Z,1015.24
2023-04-22T00:38:41.806Z,1015.15
2023-04-22T00:38:51.230Z,1015.25
2023-04-22T00:39:00.618Z,1015.24
2023-04-22T00:39:10.032Z,1015.21
2023-04-22T00:39:19.434Z,1015.25
2023-04-22T00:39:28.840Z,1015.23
2023-04-22T00:39:47.655Z,1015.20
2023-04-22T00:39:57.050Z,1015.20
2023-04-22T00:40:06.486Z,1015.21
2023-04-22T00:40:15.997Z,1015.15
2023-04-22T00:40:25.375Z,1015.27
2023-04-22T00:40:34.791Z,1015.21
2023-04-22T00:40:53.587Z,1015.21
2023-04-22T00:41:03.003Z,1015.21
2023-04-22T00:41:12.440Z,1015.22
2023-04-22T00:41:21.814Z,1015.24
2023-04-22T00:41:31.340Z,1015.23
2023-04-22T00:41:40.634Z,1015.23
2023-04-22T00:41:59.420Z,1015.14
2023-04-22T00:42:08.820Z,1015.16
2023-04-22T00:42:18.220Z,1015.16
2023-04-22T00:42:27.666Z,1015.22
2023-04-22T00:42:37.071Z,1015.17
2023-04-22T00:42:46.472Z,1015.12
2023-04-22T00:43:05.277Z,1015.20
2023-04-22T00:43:14.703Z,1015.22
2023-04-22T00:43:24.127Z,1015.12
2023-04-22T00:43:33.571Z,1015.13
2023-04-22T00:43:42.947Z,1015.21
2023-04-22T00:43:52.364Z,1015.23
2023-04-22T00:44:11.153Z,1015.19
2023-04-22T00:44:20.606Z,1015.20
2023-04-22T00:44:29.996Z,1015.19
2023-04-22T00:44:39.391Z,1015.18
2023-04-22T00:44:48.791Z,1015.24
2023-04-22T00:44:58.191Z,1015.21
2023-04-22T00:45:17.022Z,1015.27
2023-04-22T00:45:26.420Z,1015.19
2023-04-22T00:45:35.865Z,1015.21
2023-04-22T00:45:45.261Z,1015.21
2023-04-22T00:45:54.657Z,1015.23
2023-04-22T00:46:04.064Z,1015.23
2023-04-22T00:46:22.981Z,1015.24
2023-04-22T00:46:32.345Z,1015.15
2023-04-22T00:46:41.658Z,1015.19
2023-04-22T00:46:51.112Z,1015.16
2023-04-22T00:47:00.560Z,1015.27
2023-04-22T00:47:10.024Z,1015.19
2023-04-22T00:47:28.794Z,1015.18
2023-04-22T00:47:38.298Z,1015.13
2023-04-22T00:47:47.700Z,1015.15
2023-04-22T00:47:57.141Z,1015.27
2023-04-22T00:48:06.587Z,1015.16
2023-04-22T00:48:15.899Z,1015.25
2023-04-22T00:48:34.804Z,1015.12
2023-04-22T00:48:44.223Z,1015.17
2023-04-22T00:48:53.709Z,1015.20
2023-04-22T00:49:03.161Z,1015.14
2023-04-22T00:49:12.549Z,1015.20
2023-04-22T00:49:21.977Z,1015.14
2023-04-22T00:49:41.080Z,1015.17
2023-04-22T00:49:50.195Z,1015.16
2023-04-22T00:49:59.606Z,1015.19
2023-04-22T00:50:09.025Z,1015.16
2023-04-22T00:50:18.577Z,1015.13
2023-04-22T00:50:27.921Z,1015.18
2023-04-22T00:50:46.777Z,1015.14
2023-04-22T00:50:56.161Z,1015.15
2023-04-22T00:51:05.597Z,1015.19
2023-04-22T00:51:14.995Z,1015.19
2023-04-22T00:51:24.374Z,1015.22
2023-04-22T00:51:33.866Z,1015.16
2023-04-22T00:51:52.757Z,1015.17
2023-04-22T00:52:02.166Z,1015.16
2023-04-22T00:52:11.662Z,1015.16
2023-04-22T00:52:21.057Z,1015.20
2023-04-22T00:52:30.459Z,1015.10
2023-04-22T00:52:39.862Z,1015.15
2023-04-22T00:52:58.675Z,1015.21
2023-04-22T00:53:08.080Z,1015.18
2023-04-22T00:53:17.481Z,1015.18
2023-04-22T00:53:26.882Z,1015.09
2023-04-22T00:53:36.255Z,1015.12
2023-04-22T00:53:45.656Z,1015.22
2023-04-22T00:54:04.538Z,1015.14
2023-04-22T00:54:14.008Z,1015.15
2023-04-22T00:54:23.410Z,1015.12
2023-04-22T00:54:32.824Z,1015.19
2023-04-22T00:54:42.216Z,1015.18
2023-04-22T00:54:51.625Z,1015.14
2023-04-22T00:55:10.489Z,1015.13
2023-04-22T00:55:19.897Z,1015.20
2023-04-22T00:55:29.305Z,1015.15
2023-04-22T00:55:38.753Z,1015.13
2023-04-22T00:55:48.159Z,1015.17
2023-04-22T00:55:57.581Z,1015.18
2023-04-22T00:56:16.410Z,1015.18
2023-04-22T00:56:25.795Z,1015.13
2023-04-22T00:56:35.179Z,1015.12
2023-04-22T00:56:44.584Z,1015.18
2023-04-22T00:56:54.011Z,1015.15
2023-04-22T00:57:03.425Z,1015.17
2023-04-22T00:57:22.312Z,1015.16
2023-04-22T00:57:31.748Z,1015.19
2023-04-22T00:57:41.336Z,1015.17
2023-04-22T00:57:50.727Z,1015.11
2023-04-22T00:58:00.189Z,1015.16
2023-04-22T00:58:09.566Z,1015.15
2023-04-22T00:58:28.405Z,1015.08
2023-04-22T00:58:37.801Z,1015.17
2023-04-22T00:58:47.226Z,1015.18
2023-04-22T00:58:56.620Z,1015.12
2023-04-22T00:59:06.058Z,1015.18
2023-04-22T00:59:15.428Z,1015.14
2023-04-22T00:59:34.230Z,1015.13
2023-04-22T00:59:43.626Z,1015.14
2023-04-22T00:59:53.031Z,1015.14
2023-04-22T01:00:02.438Z,1015.12
2023-04-22T01:00:11.989Z,1015.16
2023-04-22T01:00:21.386Z,1015.10
2023-04-22T01:00:40.344Z,1015.14
2023-04-22T01:00:49.753Z,1015.18
2023-04-22T01:00:59.060Z,1015.15
2023-04-22T01:01:08.562Z,1015.13
2023-04-22T01:01:17.893Z,1015.12
2023-04-22T01:01:27.411Z,1015.10
2023-04-22T01:01:46.058Z,1015.13
2023-04-22T01:01:55.505Z,1015.21
2023-04-22T01:02:04.976Z,1015.11
2023-04-22T01:02:14.345Z,1015.15
2023-04-22T01:02:23.811Z,1015.14
2023-04-22T01:02:33.343Z,1015.11
2023-04-22T01:02:52.131Z,1015.12
2023-04-22T01:03:01.624Z,1015.12
2023-04-22T01:03:11.020Z,1015.08
2023-04-22T01:03:20.410Z,1015.14
2023-04-22T01:03:29.829Z,1015.11
2023-04-22T01:03:39.378Z,1015.15
2023-04-22T01:03:58.035Z,1015.03
2023-04-22T01:04:07.441Z,1015.13
2023-04-22T01:04:16.806Z,1015.06
2023-04-22T01:04:26.158Z,1015.03
2023-04-22T01:04:35.522Z,1015.08
2023-04-22T01:04:44.950Z,1015.14
2023-04-22T01:05:03.837Z,1015.07
2023-04-22T01:05:13.245Z,1015.10
2023-04-22T01:05:22.671Z,1015.08
2023-04-22T01:05:32.058Z,1015.07
2023-04-22T01:05:41.511Z,1015.07
2023-04-22T01:05:51.072Z,1015.05
2023-04-22T01:06:09.903Z,1015.04
2023-04-22T01:06:19.321Z,1015.01
2023-04-22T01:06:28.739Z,1015.07
2023-04-22T01:06:38.174Z,1015.02
2023-04-22T01:06:47.564Z,1015.04
2023-04-22T01:06:56.964Z,1015.06
2023-04-22T01:07:15.749Z,1015.04
2023-04-22T01:07:25.166Z,1014.99
2023-04-22T01:07:34.608Z,1015.01
2023-04-22T01:07:44.010Z,1015.07
2023-04-22T01:07:53.439Z,1015.06
2023-04-22T01:08:02.856Z,1015.07
2023-04-22T01:08:21.673Z,1015.04
2023-04-22T01:08:31.085Z,1015.01
2023-04-22T01:08:40.489Z,1015.04
2023-04-22T01:08:49.898Z,1015.09
2023-04-22T01:08:59.306Z,1015.08
2023-04-22T01:09:08.708Z,1015.08
2023-04-22T01:09:27.510Z,1015.05
2023-04-22T01:09:36.905Z,1015.01
2023-04-22T01:09:46.328Z,1015.09
2023-04-22T01:09:55.737Z,1015.07
2023-04-22T01:10:05.159Z,1015.12
2023-04-22T01:10:14.523Z,1015.01
2023-04-22T01:10:33.391Z,1015.05
2023-04-22T01:10:42.823Z,1015.04
2023-04-22T01:10:52.216Z,1015.04
2023-04-22T01:11:01.615Z,1015.04
2023-04-22T01:11:11.039Z,1015.03
2023-04-22T01:11:20.471Z,1015.05
2023-04-22T01:11:39.221Z,1015.04
2023-04-22T01:11:48.633Z,1015.04
2023-04-22T01:11:58.043Z,1015.03
2023-04-22T01:12:07.441Z,1014.99
2023-04-22T01:12:16.899Z,1015.01
2023-04-22T01:12:26.393Z,1014.99
2023-04-22T01:12:45.223Z,1015.04
2023-04-22T01:12:54.630Z,1015.00
2023-04-22T01:13:04.018Z,1014.98
2023-04-22T01:13:13.421Z,1015.03
2023-04-22T01:13:22.795Z,1015.03
2023-04-22T01:13:32.227Z,1015.05
2023-04-22T01:13:51.111Z,1015.01
2023-04-22T01:14:00.539Z,1015.02
2023-04-22T01:14:10.021Z,1014.98
2023-04-22T01:14:19.407Z,1015.04
2023-04-22T01:14:28.849Z,1015.04
2023-04-22T01:14:38.263Z,1015.00
2023-04-22T01:14:57.142Z,1015.06
2023-04-22T01:15:06.602Z,1015.03
2023-04-22T01:15:16.025Z,1014.94
2023-04-22T01:15:25.427Z,1014.98
2023-04-22T01:15:34.841Z,1015.00
2023-04-22T01:15:44.272Z,1014.98
2023-04-22T01:16:03.108Z,1014.98
2023-04-22T01:16:12.556Z,1014.99
2023-04-22T01:16:21.952Z,1014.97
2023-04-22T01:16:31.389Z,1015.00
2023-04-22T01:16:40.769Z,1015.03
2023-04-22T01:16:50.288Z,1014.95
2023-04-22T01:17:08.984Z,1014.97
2023-04-22T01:17:18.377Z,1014.90
2023-04-22T01:17:27.801Z,1014.96
2023-04-22T01:17:37.235Z,1014.92
2023-04-22T01:17:46.640Z,1014.96
2023-04-22T01:17:55.984Z,1014.98
2023-04-22T01:18:14.802Z,1014.90
2023-04-22T01:18:24.182Z,1014.95
2023-04-22T01:18:33.577Z,1014.96
2023-04-22T01:18:42.940Z,1014.91
2023-04-22T01:18:52.321Z,1014.94
2023-04-22T01:19:01.779Z,1014.90
2023-04-22T01:19:20.589Z,1014.96
2023-04-22T01:19:29.983Z,1014.88
2023-04-22T01:19:39.688Z,1015.01
2023-04-22T01:19:48.797Z,1015.00
2023-04-22T01:19:58.187Z,1014.90
2023-04-22T01:20:07.598Z,1014.98
2023-04-22T01:20:26.381Z,1014.92
2023-04-22T01:20:35.786Z,1014.96
2023-04-22T01:20:45.216Z,1014.96
2023-04-22T01:20:54.618Z,1014.90
2023-04-22T01:21:04.011Z,1014.99
2023-04-22T01:21:13.420Z,1014.96
2023-04-22T01:21:32.226Z,1014.85
2023-04-22T01:21:41.635Z,1014.87
2023-04-22T01:21:51.016Z,1014.89
2023-04-22T01:22:00.433Z,1014.85
2023-04-22T01:22:09.849Z,1014.94
2023-04-22T01:22:19.332Z,1014.87
2023-04-22T01:22:38.344Z,1014.86
2023-04-22T01:22:47.734Z,1014.85
2023-04-22T01:22:57.134Z,1014.90
2023-04-22T01:23:06.527Z,1014.85
2023-04-22T01:23:15.916Z,1014.89
2023-04-22T01:23:25.353Z,1014.87
2023-04-22T01:23:44.169Z,1014.90
2023-04-22T01:23:53.564Z,1014.91
2023-04-22T01:24:02.969Z,1014.94
2023-04-22T01:24:12.397Z,1014.89
2023-04-22T01:24:21.815Z,1014.89
2023-04-22T01:24:31.201Z,1014.85
2023-04-22T01:24:50.039Z,1014.90
2023-04-22T01:24:59.415Z,1014.84
2023-04-22T01:25:08.824Z,1014.85
2023-04-22T01:25:18.233Z,1014.81
2023-04-22T01:25:27.641Z,1014.80
2023-04-22T01:25:37.050Z,1014.83
2023-04-22T01:25:55.896Z,1014.78
2023-04-22T01:26:05.415Z,1014.78
2023-04-22T01:26:14.810Z,1014.76
2023-04-22T01:26:24.258Z,1014.79
2023-04-22T01:26:33.682Z,1014.78
2023-04-22T01:26:43.098Z,1014.79
2023-04-22T01:27:01.900Z,1014.80
2023-04-22T01:27:11.339Z,1014.83
2023-04-22T01:27:20.742Z,1014.81
2023-04-22T01:27:30.182Z,1014.82
2023-04-22T01:27:39.688Z,1014.84
2023-04-22T01:27:49.008Z,1014.81
2023-04-22T01:28:07.880Z,1014.83
2023-04-22T01:28:17.273Z,1014.82
2023-04-22T01:28:26.725Z,1014.86
2023-04-22T01:28:36.246Z,1014.80
2023-04-22T01:28:45.645Z,1014.82
2023-04-22T01:28:55.056Z,1014.78
2023-04-22T01:29:13.864Z,1014.83
2023-04-22T01:29:23.290Z,1014.80
2023-04-22T01:29:32.707Z,1014.81
2023-04-22T01:29:42.421Z,1014.75
2023-04-22T01:29:51.645Z,1014.78
2023-04-22T01:30:01.063Z,1014.71
2023-04-22T01:30:19.848Z,1014.81
2023-04-22T01:30:29.301Z,1014.78
2023-04-22T01:30:38.690Z,1014.79
2023-04-22T01:30:48.112Z,1014.77
2023-04-22T01:30:57.511Z,1014.84
2023-04-22T01:31:06.931Z,1014.83
2023-04-22T01:31:25.851Z,1014.72
2023-04-22T01:31:35.263Z,1014.79
2023-04-22T01:31:44.699Z,1014.72
2023-04-22T01:31:54.086Z,1014.77
2023-04-22T01:32:03.475Z,1014.78
2023-04-22T01:32:12.925Z,1014.77
2023-04-22T01:32:31.777Z,1014.75
2023-04-22T01:32:41.336Z,1014.80
2023-04-22T01:32:50.712Z,1014.74
2023-04-22T01:33:00.151Z,1014.80
2023-04-22T01:33:09.566Z,1014.83
2023-04-22T01:33:18.945Z,1014.85
2023-04-22T01:33:37.789Z,1014.83
2023-04-22T01:33:47.280Z,1014.76
2023-04-22T01:33:56.739Z,1014.76
2023-04-22T01:34:06.151Z,1014.79
2023-04-22T01:34:15.576Z,1014.77
2023-04-22T01:34:25.033Z,1014.72
2023-04-22T01:34:43.837Z,1014.71
2023-04-22T01:34:53.253Z,1014.71
2023-04-22T01:35:02.694Z,1014.78
2023-04-22T01:35:12.130Z,1014.86
2023-04-22T01:35:21.554Z,1014.71
2023-04-22T01:35:31.015Z,1014.82
2023-04-22T01:35:49.878Z,1014.77
2023-04-22T01:35:59.274Z,1014.78
2023-04-22T01:36:09.754Z,1014.74
2023-04-22T01:36:18.112Z,1014.77
2023-04-22T01:36:27.540Z,1014.73
2023-04-22T01:36:36.959Z,1014.76
2023-04-22T01:36:55.805Z,1014.77
2023-04-22T01:37:05.217Z,1014.84
2023-04-22T01:37:14.650Z,1014.83
2023-04-22T01:37:24.092Z,1014.84
2023-04-22T01:37:33.520Z,1014.82
2023-04-22T01:37:43.336Z,1014.81
2023-04-22T01:38:02.207Z,1014.78
2023-04-22T01:38:11.625Z,1014.75
2023-04-22T01:38:21.045Z,1014.76
2023-04-22T01:38:30.444Z,1014.79
2023-04-22T01:38:39.884Z,1014.75
2023-04-22T01:38:49.286Z,1014.74
2023-04-22T01:39:08.138Z,1014.80
2023-04-22T01:39:17.590Z,1014.83
2023-04-22T01:39:27.045Z,1014.76
2023-04-22T01:39:36.513Z,1014.78
2023-04-22T01:39:45.922Z,1014.74
2023-04-22T01:39:55.336Z,1014.77
2023-04-22T01:40:14.188Z,1014.83
2023-04-22T01:40:23.596Z,1014.77
2023-04-22T01:40:33.019Z,1014.81
2023-04-22T01:40:42.408Z,1014.86
2023-04-22T01:40:51.825Z,1014.85
2023-04-22T01:41:01.293Z,1014.87
2023-04-22T01:41:20.120Z,1014.81
2023-04-22T01:41:29.572Z,1014.82
2023-04-22T01:41:39.006Z,1014.78
2023-04-22T01:41:48.413Z,1014.82
2023-04-22T01:41:57.840Z,1014.87
2023-04-22T01:42:07.238Z,1014.84
2023-04-22T01:42:26.083Z,1014.79
2023-04-22T01:42:35.498Z,1014.85
2023-04-22T01:42:44.950Z,1014.81
2023-04-22T01:42:54.370Z,1014.82
2023-04-22T01:43:03.768Z,1014.86
2023-04-22T01:43:13.170Z,1014.78
2023-04-22T01:43:31.958Z,1014.89
2023-04-22T01:43:41.370Z,1014.85
2023-04-22T01:43:50.788Z,1014.84
2023-04-22T01:44:00.182Z,1014.80
2023-04-22T01:44:09.597Z,1014.83
2023-04-22T01:44:18.975Z,1014.83
2023-04-22T01:44:37.841Z,1014.76
2023-04-22T01:44:47.220Z,1014.84
2023-04-22T01:44:56.601Z,1014.77
2023-04-22T01:45:06.376Z,1014.78
2023-04-22T01:45:15.784Z,1014.83
2023-04-22T01:45:25.174Z,1014.76
2023-04-22T01:45:44.065Z,1014.80
2023-04-22T01:45:53.436Z,1014.78
2023-04-22T01:46:02.864Z,1014.86
2023-04-22T01:46:12.235Z,1014.73
2023-04-22T01:46:21.780Z,1014.78
2023-04-22T01:46:31.214Z,1014.72
2023-04-22T01:46:49.921Z,1014.79
2023-04-22T01:46:59.338Z,1014.71
2023-04-22T01:47:08.729Z,1014.78
2023-04-22T01:47:18.136Z,1014.76
2023-04-22T01:47:27.544Z,1014.76
2023-04-22T01:47:36.951Z,1014.77
2023-04-22T01:47:55.820Z,1014.79
2023-04-22T01:48:05.179Z,1014.84
2023-04-22T01:48:14.575Z,1014.83
2023-04-22T01:48:23.981Z,1014.73
2023-04-22T01:48:33.396Z,1014.83
2023-04-22T01:48:42.804Z,1014.73
2023-04-22T01:49:01.626Z,1014.78
2023-04-22T01:49:11.026Z,1014.82
2023-04-22T01:49:20.445Z,1014.82
2023-04-22T01:49:29.796Z,1014.77
2023-04-22T01:49:39.284Z,1014.81
2023-04-22T01:49:48.585Z,1014.78
2023-04-22T01:50:07.423Z,1014.72
2023-04-22T01:50:16.810Z,1014.82
2023-04-22T01:50:26.221Z,1014.76
2023-04-22T01:50:35.634Z,1014.74
2023-04-22T01:50:45.013Z,1014.76
2023-04-22T01:50:54.426Z,1014.76
2023-04-22T01:51:13.233Z,1014.74
2023-04-22T01:51:22.646Z,1014.74
2023-04-22T01:51:32.086Z,1014.70
2023-04-22T01:51:41.505Z,1014.81
2023-04-22T01:51:50.915Z,1014.75
2023-04-22T01:52:00.334Z,1014.72
2023-04-22T01:52:19.146Z,1014.81
2023-04-22T01:52:28.557Z,1014.79
2023-04-22T01:52:37.982Z,1014.77
2023-04-22T01:52:47.405Z,1014.77
2023-04-22T01:52:56.796Z,1014.77
2023-04-22T01:53:06.216Z,1014.80
2023-04-22T01:53:25.162Z,1014.73
2023-04-22T01:53:34.586Z,1014.84
2023-04-22T01:53:44.035Z,1014.80
2023-04-22T01:53:53.466Z,1014.79
2023-04-22T01:54:02.906Z,1014.81
2023-04-22T01:54:12.396Z,1014.82
2023-04-22T01:54:31.207Z,1014.77
2023-04-22T01:54:40.621Z,1014.79
2023-04-22T01:54:50.048Z,1014.73
2023-04-22T01:54:59.511Z,1014.75
2023-04-22T01:55:08.958Z,1014.74
2023-04-22T01:55:18.387Z,1014.77
2023-04-22T01:55:37.214Z,1014.72
2023-04-22T01:55:46.639Z,1014.73
2023-04-22T01:55:56.096Z,1014.70
2023-04-22T01:56:05.511Z,1014.75
2023-04-22T01:56:14.926Z,1014.81
2023-04-22T01:56:24.321Z,1014.69
2023-04-22T01:56:43.126Z,1014.77
2023-04-22T01:56:52.524Z,1014.73
2023-04-22T01:57:01.942Z,1014.74
2023-04-22T01:57:11.436Z,1014.75
2023-04-22T01:57:20.836Z,1014.83
2023-04-22T01:57:30.283Z,1014.72
2023-04-22T01:57:49.196Z,1014.74
2023-04-22T01:57:58.588Z,1014.74
2023-04-22T01:58:08.107Z,1014.78
2023-04-22T01:58:17.528Z,1014.79
2023-04-22T01:58:26.940Z,1014.79
2023-04-22T01:58:36.439Z,1014.76
2023-04-22T01:58:55.326Z,1014.79
2023-04-22T01:59:04.734Z,1014.84
2023-04-22T01:59:14.160Z,1014.77
2023-04-22T01:59:23.664Z,1014.83
2023-04-22T01:59:33.076Z,1014.85
2023-04-22T01:59:42.571Z,1014.75
2023-04-22T02:00:01.322Z,1014.76
2023-04-22T02:00:10.758Z,1014.74
2023-04-22T02:00:20.133Z,1014.81
2023-04-22T02:00:29.544Z,1014.81
2023-04-22T02:00:38.933Z,1014.80
2023-04-22T02:00:48.321Z,1014.81
2023-04-22T02:01:07.120Z,1014.76
2023-04-22T02:01:16.560Z,1014.80
2023-04-22T02:01:26.012Z,1014.82
2023-04-22T02:01:35.370Z,1014.85
2023-04-22T02:01:44.828Z,1014.78
2023-04-22T02:01:54.212Z,1014.79
2023-04-22T02:02:13.046Z,1014.81
2023-04-22T02:02:22.464Z,1014.76
2023-04-22T02:02:31.849Z,1014.80
2023-04-22T02:02:41.322Z,1014.81
2023-04-22T02:02:50.820Z,1014.77
2023-04-22T02:03:00.292Z,1014.74
2023-04-22T02:03:18.924Z,1014.77
2023-04-22T02:03:28.369Z,1014.72
2023-04-22T02:03:37.732Z,1014.81
2023-04-22T02:03:47.142Z,1014.74
2023-04-22T02:03:56.469Z,1014.73
2023-04-22T02:04:05.910Z,1014.74
2023-04-22T02:04:24.823Z,1014.76
2023-04-22T02:04:34.262Z,1014.74
2023-04-22T02:04:43.646Z,1014.75
2023-04-22T02:04:53.004Z,1014.68
2023-04-22T02:05:02.379Z,1014.72
2023-04-22T02:05:11.739Z,1014.72
2023-04-22T02:05:30.555Z,1014.73
2023-04-22T02:05:40.057Z,1014.76
2023-04-22T02:05:49.455Z,1014.77
2023-04-22T02:05:58.837Z,1014.72
2023-04-22T02:06:08.222Z,1014.75
2023-04-22T02:06:17.641Z,1014.75
2023-04-22T02:06:36.473Z,1014.76
2023-04-22T02:06:45.858Z,1014.82
2023-04-22T02:06:55.255Z,1014.67
2023-04-22T02:07:04.649Z,1014.81
2023-04-22T02:07:14.053Z,1014.78
2023-04-22T02:07:23.460Z,1014.72
2023-04-22T02:07:42.228Z,1014.82
2023-04-22T02:07:51.645Z,1014.75
2023-04-22T02:08:01.059Z,1014.69
2023-04-22T02:08:10.455Z,1014.71
2023-04-22T02:08:19.843Z,1014.70
2023-04-22T02:08:29.246Z,1014.71
2023-04-22T02:08:48.101Z,1014.71
2023-04-22T02:08:57.487Z,1014.78
2023-04-22T02:09:06.885Z,1014.71
2023-04-22T02:09:16.283Z,1014.73
2023-04-22T02:09:25.667Z,1014.74
2023-04-22T02:09:35.087Z,1014.76
2023-04-22T02:09:53.982Z,1014.76
2023-04-22T02:10:03.380Z,1014.74
2023-04-22T02:10:12.777Z,1014.71
2023-04-22T02:10:22.171Z,1014.68
2023-04-22T02:10:31.569Z,1014.67
2023-04-22T02:10:40.986Z,1014.70
2023-04-22T02:10:59.776Z,1014.70
2023-04-22T02:11:09.166Z,1014.73
2023-04-22T02:11:18.559Z,1014.68
2023-04-22T02:11:27.951Z,1014.70
2023-04-22T02:11:37.371Z,1014.65
2023-04-22T02:11:49.725Z,1014.67
2023-04-22T02:12:08.611Z,1014.68
2023-04-22T02:12:18.068Z,1014.67
2023-04-22T02:12:27.538Z,1014.68
2023-04-22T02:12:36.944Z,1014.68
2023-04-22T02:12:46.344Z,1014.73
2023-04-22T02:12:55.784Z,1014.67